createdAt,value
2018-07-31T00:01:37.585Z,99.80
2018-07-31T00:04:06.547Z,99.50
2018-07-31T00:06:35.098Z,99.10
2018-07-31T00:09:07.505Z,99.90
2018-07-31T00:11:36.595Z,98.20
2018-07-31T00:14:06.148Z,99.30
2018-07-31T00:16:34.651Z,99.00
2018-07-31T00:19:05.764Z,98.60
2018-07-31T00:21:34.283Z,98.90
2018-07-31T00:24:03.360Z,99.40
2018-07-31T00:26:33.059Z,99.90
2018-07-31T00:29:01.525Z,99.60
2018-07-31T00:31:30.008Z,99.70
2018-07-31T00:33:58.595Z,99.90
2018-07-31T00:36:27.133Z,99.90
2018-07-31T00:38:55.673Z,99.90
2018-07-31T00:41:24.543Z,99.90
2018-07-31T00:43:55.386Z,99.90
2018-07-31T00:46:23.926Z,99.90
2018-07-31T00:48:53.015Z,99.90
2018-07-31T00:51:21.650Z,99.90
2018-07-31T00:53:50.771Z,99.90
2018-07-31T00:56:19.649Z,99.90
2018-07-31T00:58:49.426Z,99.90
2018-07-31T01:01:17.911Z,99.90
2018-07-31T01:03:46.560Z,99.90
2018-07-31T01:06:15.687Z,99.90
2018-07-31T01:08:44.895Z,99.90
2018-07-31T01:11:13.588Z,99.90
2018-07-31T01:13:42.103Z,99.90
2018-07-31T01:16:10.582Z,99.90
2018-07-31T01:18:39.439Z,99.90
2018-07-31T01:21:07.995Z,99.90
2018-07-31T01:23:36.477Z,99.90
2018-07-31T01:26:05.057Z,99.90
2018-07-31T01:28:33.985Z,99.90
2018-07-31T01:31:03.998Z,99.90
2018-07-31T01:33:32.470Z,99.90
2018-07-31T01:36:01.146Z,99.90
2018-07-31T01:38:30.631Z,99.90
2018-07-31T01:43:28.091Z,99.90
2018-07-31T01:45:58.353Z,99.90
2018-07-31T01:48:26.993Z,99.90
2018-07-31T01:50:55.490Z,99.90
2018-07-31T01:53:24.018Z,99.90
2018-07-31T01:55:52.739Z,99.90
2018-07-31T01:58:22.577Z,99.90
2018-07-31T02:00:51.113Z,99.90
2018-07-31T02:03:19.579Z,99.90
2018-07-31T02:05:48.109Z,99.90
2018-07-31T02:08:16.568Z,99.90
2018-07-31T02:10:48.278Z,99.90
2018-07-31T02:13:16.942Z,99.90
2018-07-31T02:15:45.865Z,99.90
2018-07-31T02:18:15.978Z,99.90
2018-07-31T02:20:44.512Z,99.90
2018-07-31T02:23:14.051Z,99.90
2018-07-31T02:28:10.807Z,99.90
2018-07-31T02:30:40.363Z,99.90
2018-07-31T02:33:08.858Z,99.90
2018-07-31T02:35:38.236Z,99.90
2018-07-31T02:38:07.149Z,99.90
2018-07-31T02:40:36.900Z,99.90
2018-07-31T02:43:06.014Z,99.90
2018-07-31T02:45:34.503Z,99.90
2018-07-31T02:48:03.047Z,99.90
2018-07-31T02:50:32.383Z,99.90
2018-07-31T02:53:02.078Z,99.90
2018-07-31T02:55:30.581Z,99.90
2018-07-31T02:57:59.998Z,99.90
2018-07-31T03:00:28.500Z,99.90
2018-07-31T03:02:57.762Z,99.90
2018-07-31T03:05:26.299Z,99.90
2018-07-31T03:07:54.854Z,99.90
2018-07-31T03:10:54.413Z,99.90
2018-07-31T03:13:23.529Z,99.90
2018-07-31T03:15:52.122Z,99.90
2018-07-31T03:18:20.666Z,99.90
2018-07-31T03:20:49.668Z,99.90
2018-07-31T03:23:18.841Z,99.90
2018-07-31T03:25:47.499Z,99.90
2018-07-31T03:28:16.091Z,99.90
2018-07-31T03:30:45.387Z,99.90
2018-07-31T03:33:13.878Z,99.90
2018-07-31T03:35:43.518Z,99.90
2018-07-31T03:38:12.027Z,99.90
2018-07-31T03:40:42.150Z,99.90
2018-07-31T03:43:10.719Z,99.90
2018-07-31T03:45:39.779Z,99.90
2018-07-31T03:48:08.304Z,99.90
2018-07-31T03:50:36.856Z,99.90
2018-07-31T03:53:05.585Z,99.90
2018-07-31T03:55:34.108Z,99.90
2018-07-31T03:58:02.780Z,99.90
2018-07-31T04:00:31.296Z,99.90
2018-07-31T04:02:59.796Z,99.90
2018-07-31T04:05:28.338Z,99.90
2018-07-31T04:07:57.892Z,99.90
2018-07-31T04:10:27.248Z,99.90
2018-07-31T04:12:55.972Z,99.90
2018-07-31T04:15:24.880Z,99.90
2018-07-31T04:17:57.019Z,99.90
2018-07-31T04:20:27.122Z,99.90
2018-07-31T04:22:55.664Z,99.90
2018-07-31T04:25:25.032Z,99.90
2018-07-31T04:27:53.747Z,99.90
2018-07-31T04:30:22.279Z,99.90
2018-07-31T04:32:50.827Z,99.90
2018-07-31T04:35:19.475Z,99.90
2018-07-31T04:37:48.893Z,99.90
2018-07-31T04:40:17.409Z,99.90
2018-07-31T04:42:45.891Z,99.90
2018-07-31T04:45:14.423Z,99.90
2018-07-31T04:47:42.895Z,99.90
2018-07-31T04:50:11.841Z,99.90
2018-07-31T04:52:41.960Z,99.90
2018-07-31T04:55:10.446Z,99.90
2018-07-31T04:57:39.281Z,99.90
2018-07-31T05:00:09.427Z,99.90
2018-07-31T05:02:39.221Z,99.90
2018-07-31T05:05:07.766Z,99.90
2018-07-31T05:07:39.364Z,99.90
2018-07-31T05:10:11.156Z,99.90
2018-07-31T05:12:41.159Z,99.90
2018-07-31T05:15:10.039Z,99.90
2018-07-31T05:17:39.226Z,99.90
2018-07-31T05:20:09.731Z,99.90
2018-07-31T05:22:38.747Z,99.90
2018-07-31T05:25:07.393Z,99.90
2018-07-31T05:27:36.399Z,99.90
2018-07-31T05:30:08.010Z,99.90
2018-07-31T05:32:37.850Z,99.90
2018-07-31T05:35:07.576Z,99.90
2018-07-31T05:37:36.807Z,99.90
2018-07-31T05:40:08.095Z,99.90
2018-07-31T05:42:38.498Z,99.90
2018-07-31T05:45:07.355Z,99.90
2018-07-31T05:47:35.891Z,99.90
2018-07-31T05:50:05.619Z,99.90
2018-07-31T05:55:03.272Z,99.90
2018-07-31T05:57:32.466Z,99.90
2018-07-31T06:00:01.832Z,99.90
2018-07-31T06:02:30.380Z,99.90
2018-07-31T06:04:59.237Z,99.90
2018-07-31T06:07:28.859Z,99.90
2018-07-31T06:09:57.822Z,99.90
2018-07-31T06:12:27.595Z,99.90
2018-07-31T06:14:57.169Z,99.90
2018-07-31T06:17:25.773Z,99.90
2018-07-31T06:19:54.270Z,99.90
2018-07-31T06:22:22.915Z,99.90
2018-07-31T06:24:52.978Z,99.90
2018-07-31T06:27:22.905Z,99.90
2018-07-31T06:29:51.495Z,99.90
2018-07-31T06:32:20.574Z,99.90
2018-07-31T06:34:49.527Z,99.90
2018-07-31T06:37:18.449Z,92.80
2018-07-31T06:39:47.185Z,79.30
2018-07-31T06:42:15.838Z,71.90
2018-07-31T06:44:44.925Z,67.00
2018-07-31T06:47:14.033Z,63.10
2018-07-31T06:49:43.519Z,59.60
2018-07-31T06:52:13.651Z,60.80
2018-07-31T06:54:43.184Z,61.20
2018-07-31T06:57:12.250Z,58.10
2018-07-31T06:59:42.129Z,54.80
2018-07-31T07:02:11.166Z,53.60
2018-07-31T07:04:40.451Z,51.80
2018-07-31T07:07:10.235Z,51.60
2018-07-31T07:09:40.121Z,50.30
2018-07-31T07:12:10.063Z,50.50
2018-07-31T07:14:39.214Z,51.80
2018-07-31T07:17:08.272Z,55.10
2018-07-31T07:19:38.438Z,61.30
2018-07-31T07:22:07.667Z,67.20
2018-07-31T07:24:36.790Z,69.00
2018-07-31T07:27:06.785Z,72.90
2018-07-31T07:29:36.235Z,75.60
2018-07-31T07:32:05.853Z,77.90
2018-07-31T07:34:34.955Z,80.60
2018-07-31T07:37:04.679Z,83.40
2018-07-31T07:39:33.757Z,81.20
2018-07-31T07:42:02.879Z,81.20
2018-07-31T07:44:32.370Z,81.80
2018-07-31T07:47:03.232Z,85.20
2018-07-31T07:49:32.224Z,85.70
2018-07-31T07:52:00.887Z,86.30
2018-07-31T07:54:30.934Z,83.30
2018-07-31T07:57:01.244Z,80.00
2018-07-31T07:59:30.310Z,78.70
2018-07-31T08:02:00.089Z,78.60
2018-07-31T08:04:29.521Z,77.70
2018-07-31T08:06:59.004Z,75.80
2018-07-31T08:09:28.056Z,74.50
2018-07-31T08:11:57.179Z,72.40
2018-07-31T08:14:26.262Z,72.10
2018-07-31T08:16:55.731Z,73.90
2018-07-31T08:19:25.316Z,75.60
2018-07-31T08:21:54.805Z,75.00
2018-07-31T08:24:24.847Z,73.20
2018-07-31T08:26:54.133Z,73.70
2018-07-31T08:29:23.503Z,72.80
2018-07-31T08:31:53.819Z,75.10
2018-07-31T08:34:23.989Z,75.50
2018-07-31T08:36:55.407Z,76.30
2018-07-31T08:39:25.330Z,76.90
2018-07-31T08:41:54.400Z,76.80
2018-07-31T08:44:24.742Z,76.10
2018-07-31T08:46:53.800Z,74.80
2018-07-31T08:49:22.870Z,73.50
2018-07-31T08:51:51.888Z,73.90
2018-07-31T08:54:20.941Z,74.40
2018-07-31T08:56:50.245Z,74.40
2018-07-31T08:59:19.285Z,73.00
2018-07-31T09:01:48.323Z,72.60
2018-07-31T09:04:18.907Z,73.40
2018-07-31T09:09:17.692Z,74.30
2018-07-31T09:11:47.322Z,73.80
2018-07-31T09:14:16.633Z,71.90
2018-07-31T09:16:45.928Z,71.00
2018-07-31T09:19:15.284Z,70.60
2018-07-31T09:21:44.247Z,70.00
2018-07-31T09:24:13.670Z,70.20
2018-07-31T09:26:42.655Z,71.90
2018-07-31T09:29:11.981Z,70.10
2018-07-31T09:31:41.529Z,70.70
2018-07-31T09:34:10.555Z,71.20
2018-07-31T09:36:40.109Z,71.70
2018-07-31T09:39:11.661Z,70.40
2018-07-31T09:41:40.955Z,69.10
2018-07-31T09:44:10.586Z,69.90
2018-07-31T09:46:39.556Z,69.20
2018-07-31T09:49:08.508Z,70.10
2018-07-31T09:54:06.603Z,68.30
2018-07-31T09:56:35.960Z,67.70
2018-07-31T09:59:05.903Z,68.60
2018-07-31T10:01:35.261Z,69.50
2018-07-31T10:04:04.297Z,69.00
2018-07-31T10:06:34.754Z,68.10
2018-07-31T10:09:05.847Z,66.70
2018-07-31T10:11:34.875Z,66.30
2018-07-31T10:14:04.695Z,66.90
2018-07-31T10:16:33.695Z,66.40
2018-07-31T10:19:03.380Z,66.20
2018-07-31T10:21:32.719Z,66.10
2018-07-31T10:24:01.697Z,62.10
2018-07-31T10:26:31.750Z,63.00
2018-07-31T10:29:00.712Z,63.60
2018-07-31T10:31:29.704Z,64.30
2018-07-31T10:33:58.866Z,64.40
2018-07-31T10:36:27.867Z,63.60
2018-07-31T10:38:56.874Z,63.60
2018-07-31T10:41:25.840Z,63.60
2018-07-31T10:43:54.840Z,61.70
2018-07-31T10:46:23.969Z,62.00
2018-07-31T10:48:53.020Z,61.10
2018-07-31T10:51:21.971Z,61.30
2018-07-31T10:53:52.482Z,60.30
2018-07-31T10:56:21.437Z,62.70
2018-07-31T10:58:50.435Z,62.70
2018-07-31T11:01:20.452Z,64.40
2018-07-31T11:03:49.501Z,65.10
2018-07-31T11:06:18.180Z,65.10
2018-07-31T11:08:47.366Z,64.50
2018-07-31T11:11:16.252Z,63.20
2018-07-31T11:13:45.198Z,61.80
2018-07-31T11:16:13.730Z,62.10
2018-07-31T11:18:44.081Z,62.70
2018-07-31T11:21:14.102Z,62.40
2018-07-31T11:23:44.421Z,62.20
2018-07-31T11:26:14.049Z,61.70
2018-07-31T11:28:44.420Z,62.20
2018-07-31T11:31:13.674Z,60.50
2018-07-31T11:33:51.251Z,60.80
2018-07-31T11:36:24.627Z,60.90
2018-07-31T11:38:54.224Z,61.10
2018-07-31T11:41:24.964Z,60.70
2018-07-31T11:43:54.136Z,61.20
2018-07-31T11:46:23.290Z,61.70
2018-07-31T11:48:52.626Z,60.90
2018-07-31T11:51:22.352Z,60.30
2018-07-31T11:53:51.825Z,59.10
2018-07-31T11:56:20.983Z,58.40
2018-07-31T11:58:50.457Z,58.50
2018-07-31T12:01:19.726Z,58.80
2018-07-31T12:03:48.888Z,58.90
2018-07-31T12:06:18.709Z,58.90
2018-07-31T12:08:48.708Z,57.00
2018-07-31T12:11:18.612Z,56.70
2018-07-31T12:13:48.030Z,55.20
2018-07-31T12:16:17.404Z,54.90
2018-07-31T12:18:46.002Z,55.30
2018-07-31T12:21:15.217Z,54.50
2018-07-31T12:23:44.262Z,54.30
2018-07-31T12:26:12.770Z,53.90
2018-07-31T12:28:41.802Z,54.00
2018-07-31T12:31:11.719Z,52.90
2018-07-31T12:33:41.134Z,54.00
2018-07-31T12:36:10.912Z,53.50
2018-07-31T12:38:40.409Z,53.80
2018-07-31T12:41:09.475Z,54.00
2018-07-31T12:43:38.563Z,54.80
2018-07-31T12:46:08.475Z,55.00
2018-07-31T12:48:38.682Z,55.40
2018-07-31T12:51:07.802Z,56.80
2018-07-31T12:53:37.206Z,57.30
2018-07-31T12:56:06.903Z,58.00
2018-07-31T12:58:35.421Z,57.30
2018-07-31T13:01:03.949Z,57.70
2018-07-31T13:03:32.442Z,58.80
2018-07-31T13:06:00.968Z,58.40
2018-07-31T13:08:31.498Z,56.80
2018-07-31T13:11:00.056Z,55.90
2018-07-31T13:13:29.083Z,55.20
2018-07-31T13:15:59.711Z,55.50
2018-07-31T13:18:28.198Z,56.60
2018-07-31T13:20:57.554Z,57.40
2018-07-31T13:23:26.650Z,57.50
2018-07-31T13:25:55.846Z,57.90
2018-07-31T13:28:24.983Z,58.90
2018-07-31T13:30:53.985Z,59.60
2018-07-31T13:33:22.583Z,60.50
2018-07-31T13:35:51.058Z,59.50
2018-07-31T13:40:48.972Z,59.50
2018-07-31T13:43:17.800Z,58.50
2018-07-31T13:45:46.696Z,59.70
2018-07-31T13:48:15.833Z,60.70
2018-07-31T13:50:44.371Z,61.80
2018-07-31T13:53:14.396Z,62.00
2018-07-31T13:55:42.910Z,62.60
2018-07-31T13:58:11.387Z,62.80
2018-07-31T14:00:39.888Z,63.10
2018-07-31T14:03:08.652Z,62.90
2018-07-31T14:05:37.267Z,62.10
2018-07-31T14:08:07.215Z,62.20
2018-07-31T14:10:36.348Z,62.30
2018-07-31T14:13:05.215Z,63.10
2018-07-31T14:15:34.475Z,62.80
2018-07-31T14:18:03.339Z,62.30
2018-07-31T14:20:32.492Z,62.40
2018-07-31T14:23:01.780Z,62.70
2018-07-31T14:25:30.296Z,62.00
2018-07-31T14:27:58.807Z,62.90
2018-07-31T14:30:27.563Z,63.60
2018-07-31T14:32:56.239Z,62.80
2018-07-31T14:35:24.813Z,62.60
2018-07-31T14:37:53.785Z,63.10
2018-07-31T14:40:23.767Z,62.40
2018-07-31T14:42:52.277Z,62.80
2018-07-31T14:45:20.931Z,63.00
2018-07-31T14:47:49.430Z,63.00
2018-07-31T14:52:46.218Z,63.20
2018-07-31T14:55:14.704Z,62.70
2018-07-31T14:57:43.363Z,61.20
2018-07-31T15:00:11.899Z,60.90
2018-07-31T15:02:41.883Z,61.70
2018-07-31T15:05:13.605Z,61.70
2018-07-31T15:07:42.189Z,62.10
2018-07-31T15:10:10.833Z,62.80
2018-07-31T15:12:40.244Z,62.90
2018-07-31T15:15:09.439Z,62.20
2018-07-31T15:17:38.149Z,62.10
2018-07-31T15:20:09.430Z,61.60
2018-07-31T15:22:38.090Z,61.90
2018-07-31T15:25:07.037Z,62.30
2018-07-31T15:27:35.802Z,62.40
2018-07-31T15:30:05.754Z,62.30
2018-07-31T15:32:34.871Z,62.50
2018-07-31T15:35:03.526Z,62.40
2018-07-31T15:37:32.481Z,62.00
2018-07-31T15:40:01.338Z,61.50
2018-07-31T15:42:30.611Z,61.00
2018-07-31T15:44:59.339Z,61.40
2018-07-31T15:47:27.999Z,61.10
2018-07-31T15:49:57.016Z,61.50
2018-07-31T15:52:26.219Z,60.10
2018-07-31T15:54:55.602Z,60.20
2018-07-31T15:57:24.128Z,61.00
2018-07-31T15:59:52.651Z,60.90
2018-07-31T16:02:21.241Z,60.60
2018-07-31T16:04:50.809Z,61.10
2018-07-31T16:07:20.420Z,59.50
2018-07-31T16:09:48.995Z,59.20
2018-07-31T16:12:17.520Z,58.80
2018-07-31T16:14:46.859Z,59.20
2018-07-31T16:17:15.687Z,58.40
2018-07-31T16:19:44.805Z,58.60
2018-07-31T16:22:13.466Z,58.90
2018-07-31T16:24:42.103Z,58.10
2018-07-31T16:27:12.129Z,58.10
2018-07-31T16:29:40.689Z,59.20
2018-07-31T16:32:09.963Z,60.00
2018-07-31T16:34:38.552Z,62.00
2018-07-31T16:37:07.484Z,60.80
2018-07-31T16:39:36.643Z,59.60
2018-07-31T16:42:05.266Z,59.70
2018-07-31T16:44:33.782Z,63.10
2018-07-31T16:47:03.774Z,64.90
2018-07-31T16:49:32.307Z,65.70
2018-07-31T16:52:00.840Z,66.50
2018-07-31T16:54:29.327Z,67.10
2018-07-31T16:56:57.867Z,66.40
2018-07-31T16:59:27.641Z,67.40
2018-07-31T17:01:57.182Z,68.30
2018-07-31T17:04:25.806Z,69.30
2018-07-31T17:06:54.871Z,70.00
2018-07-31T17:09:23.404Z,70.40
2018-07-31T17:11:52.282Z,70.80
2018-07-31T17:14:21.934Z,72.50
2018-07-31T17:16:50.541Z,72.50
2018-07-31T17:19:19.790Z,73.10
2018-07-31T17:21:48.284Z,73.60
2018-07-31T17:24:17.046Z,73.70
2018-07-31T17:26:45.599Z,74.00
2018-07-31T17:29:14.085Z,73.50
2018-07-31T17:31:42.602Z,73.90
2018-07-31T17:34:11.067Z,73.40
2018-07-31T17:36:39.820Z,73.20
2018-07-31T17:39:10.028Z,73.40
2018-07-31T17:41:39.675Z,72.10
2018-07-31T17:44:08.288Z,72.60
2018-07-31T17:46:36.841Z,72.70
2018-07-31T17:49:05.982Z,72.70
2018-07-31T17:51:34.495Z,72.60
2018-07-31T17:54:03.034Z,72.70
2018-07-31T17:56:32.624Z,73.20
2018-07-31T17:59:01.118Z,73.20
2018-07-31T18:01:30.043Z,73.10
2018-07-31T18:03:58.735Z,73.30
2018-07-31T18:06:27.290Z,72.90
2018-07-31T18:08:56.980Z,72.70
2018-07-31T18:11:25.537Z,72.90
2018-07-31T18:13:54.036Z,72.50
2018-07-31T18:16:22.743Z,73.00
2018-07-31T18:18:51.486Z,73.00
2018-07-31T18:21:19.981Z,72.80
2018-07-31T18:23:48.944Z,73.00
2018-07-31T18:26:19.584Z,73.30
2018-07-31T18:28:48.126Z,73.20
2018-07-31T18:31:18.305Z,73.70
2018-07-31T18:33:46.848Z,73.50
2018-07-31T18:36:15.336Z,72.60
2018-07-31T18:38:44.200Z,72.30
2018-07-31T18:41:13.116Z,72.50
2018-07-31T18:43:42.666Z,72.30
2018-07-31T18:46:11.174Z,72.50
2018-07-31T18:48:39.866Z,72.20
2018-07-31T18:51:09.180Z,71.50
2018-07-31T18:53:37.736Z,71.20
2018-07-31T18:56:06.867Z,71.40
2018-07-31T18:58:36.498Z,71.20
2018-07-31T19:01:05.191Z,71.10
2018-07-31T19:03:34.192Z,71.70
2018-07-31T19:06:02.755Z,72.20
2018-07-31T19:08:32.203Z,71.50
2018-07-31T19:13:30.523Z,72.50
2018-07-31T19:15:59.028Z,72.80
2018-07-31T19:18:27.511Z,73.50
2018-07-31T19:20:56.035Z,73.00
2018-07-31T19:23:24.862Z,73.00
2018-07-31T19:25:55.188Z,72.80
2018-07-31T19:28:24.219Z,73.20
2018-07-31T19:30:53.691Z,74.10
2018-07-31T19:33:22.203Z,73.40
2018-07-31T19:35:50.884Z,73.20
2018-07-31T19:38:19.347Z,73.60
2018-07-31T19:40:47.840Z,73.60
2018-07-31T19:43:16.671Z,73.40
2018-07-31T19:45:45.888Z,73.40
2018-07-31T19:48:14.360Z,72.80
2018-07-31T19:50:42.866Z,72.70
2018-07-31T19:53:11.395Z,73.30
2018-07-31T19:55:40.353Z,72.70
2018-07-31T19:58:08.857Z,73.20
2018-07-31T20:00:38.034Z,73.40
2018-07-31T20:03:06.951Z,75.70
2018-07-31T20:05:35.453Z,73.80
2018-07-31T20:08:04.630Z,75.60
2018-07-31T20:10:33.192Z,74.70
2018-07-31T20:13:03.044Z,74.80
2018-07-31T20:15:31.614Z,75.10
2018-07-31T20:18:00.218Z,75.70
2018-07-31T20:20:29.135Z,75.30
2018-07-31T20:22:58.499Z,75.40
2018-07-31T20:25:26.995Z,76.10
2018-07-31T20:27:55.476Z,75.70
2018-07-31T20:30:24.053Z,75.40
2018-07-31T20:32:52.611Z,74.90
2018-07-31T20:35:21.090Z,75.20
2018-07-31T20:37:50.364Z,75.70
2018-07-31T20:40:19.078Z,75.60
2018-07-31T20:42:49.011Z,75.70
2018-07-31T20:45:17.715Z,76.10
2018-07-31T20:47:46.318Z,76.90
2018-07-31T20:50:15.394Z,76.80
2018-07-31T20:52:44.096Z,77.10
2018-07-31T20:55:12.691Z,77.60
2018-07-31T20:57:41.295Z,77.80
2018-07-31T21:00:09.966Z,77.80
2018-07-31T21:02:39.245Z,78.10
2018-07-31T21:07:37.376Z,78.30
2018-07-31T21:10:05.971Z,78.30
2018-07-31T21:12:36.777Z,78.80
2018-07-31T21:15:07.830Z,78.50
2018-07-31T21:17:38.231Z,78.90
2018-07-31T21:20:07.344Z,78.90
2018-07-31T21:22:35.803Z,79.00
2018-07-31T21:25:05.266Z,79.20
2018-07-31T21:27:34.066Z,79.20
2018-07-31T21:30:02.734Z,79.50
2018-07-31T21:32:31.786Z,79.70
2018-07-31T21:35:00.738Z,79.70
2018-07-31T21:37:29.259Z,80.00
2018-07-31T21:39:57.910Z,80.10
2018-07-31T21:42:26.719Z,79.80
2018-07-31T21:44:55.837Z,79.80
2018-07-31T21:47:24.420Z,80.50
2018-07-31T21:49:52.927Z,79.50
2018-07-31T21:52:21.621Z,79.60
2018-07-31T21:54:50.751Z,80.60
2018-07-31T21:57:19.507Z,80.10
2018-07-31T21:59:48.062Z,80.00
2018-07-31T22:02:17.812Z,80.30
2018-07-31T22:04:48.801Z,80.00
2018-07-31T22:07:18.244Z,80.20
2018-07-31T22:09:48.545Z,79.90
2018-07-31T22:12:17.023Z,79.90
2018-07-31T22:14:45.534Z,80.50
2018-07-31T22:17:14.039Z,80.00
2018-07-31T22:19:42.927Z,80.60
2018-07-31T22:22:11.443Z,80.70
2018-07-31T22:24:40.226Z,80.60
2018-07-31T22:27:08.852Z,80.70
2018-07-31T22:29:37.658Z,80.90
2018-07-31T22:32:06.374Z,80.90
2018-07-31T22:34:36.163Z,81.20
2018-07-31T22:37:04.679Z,81.20
2018-07-31T22:39:33.247Z,81.60
2018-07-31T22:42:03.595Z,81.40
2018-07-31T22:44:32.103Z,81.50
2018-07-31T22:47:00.615Z,81.80
2018-07-31T22:49:29.139Z,82.20
2018-07-31T22:51:57.637Z,82.90
2018-07-31T22:54:26.120Z,82.60
2018-07-31T22:56:55.206Z,82.30
2018-07-31T22:59:24.699Z,82.60
2018-07-31T23:01:54.811Z,83.20
2018-07-31T23:04:23.307Z,83.50
2018-07-31T23:06:51.801Z,84.70
2018-07-31T23:09:20.280Z,83.80
2018-07-31T23:11:49.076Z,84.90
2018-07-31T23:14:17.575Z,84.60
2018-07-31T23:16:46.388Z,85.50
2018-07-31T23:19:14.869Z,86.90
2018-07-31T23:21:43.643Z,87.00
2018-07-31T23:24:12.142Z,88.40
2018-07-31T23:26:40.937Z,88.50
2018-07-31T23:29:09.400Z,89.10
2018-07-31T23:31:37.911Z,88.30
2018-07-31T23:34:06.731Z,88.40
2018-07-31T23:36:35.308Z,90.50
2018-07-31T23:39:04.559Z,90.20
2018-07-31T23:41:33.071Z,89.90
2018-07-31T23:44:01.899Z,90.00
2018-07-31T23:46:30.424Z,90.40
2018-07-31T23:48:59.003Z,90.80
2018-07-31T23:51:27.599Z,90.50
2018-07-31T23:53:56.413Z,90.90
2018-07-31T23:56:24.916Z,91.70
2018-07-31T23:58:53.387Z,91.20
